Abbott
UTM 11U Easting = 46 4305, Northing = 56 77958     Elevation = 2130 m
Note to Users: This site contains raw data and is presented "as is" and in real time. Although reasonable care is exercised in providing this information, inaccuracies or omissions may occur due to the properties of weather and data collection systems. The Avalanche Control Section, responsible for its collection, disclaims all responsibility for the accuracy of the information.
Date Max Temp (deg C) Min Temp (deg C) Rel Hum (%) 1 Hr Precip (mm) HS (cm) Wind Dir (1 Hr Avg) Wind Spd (kph) (1 Hr Avg) Max Wind Speed (kph)
2018-02-20 16:00 -20 -21 79 0.0 211 W 6 10
2018-02-20 17:00 -20 -21 80 1.1 211 W 7 13
2018-02-20 18:00 -21 -22 80 0.0 211 W 6 12
2018-02-20 19:00 -21 -21 79 0.0 211 S 4 10
2018-02-20 20:00 -21 -21 79 0.0 210 SW 2 6
2018-02-20 21:00 -21 -22 79 0.0 210 S 5 8
2018-02-20 22:00 -21 -22 79 0.0 210 W 2 5
2018-02-20 23:00 -22 -22 79 0.0 210 SW 3 6
2018-02-21 00:00 -22 -23 79 0.0 210 SW 7 13
2018-02-21 01:00 -22 -23 79 0.0 209 SW 4 10
2018-02-21 02:00 -21 -23 79 0.0 209 W 4 10
2018-02-21 03:00 -22 -23 79 0.0 209 SW 6 18
2018-02-21 04:00 -23 -24 78 1.1 209 S 7 13
2018-02-21 05:00 -22 -24 79 0.0 209 W 6 16
2018-02-21 06:00 -22 -23 79 1.5 209 S 4 8
2018-02-21 07:00 -23 -23 78 0.0 208 SW 3 7
2018-02-21 08:00 -22 -23 78 0.0 208 W 4 9
2018-02-21 09:00 -21 -22 78 0.0 208 W 3 10
2018-02-21 10:00 -21 -22 78 0.0 208 NW 3 7
2018-02-21 11:00 -18 -21 77 1.0 207 N 2 6
2018-02-21 12:00 -16 -20 75 0.0 206 NW 3 8
2018-02-21 13:00 -17 -20 76 0.0 208 NW 2 7
2018-02-21 14:00 -16 -20 77 0.0 206 NW 3 8
2018-02-21 15:00 -16 -19 77 0.0 208 N 2 8